Time;durP1;ratioP1;P1;durP2;ratioP2;P2;SDS_P1;SDS_P2;PMS_P1;PMS_P2;Temp;Humidity;BMP_temperature;BMP_pressure;BME280_temperature;BME280_humidity;BME280_pressure;Samples;Min_cycle;Max_cycle;Signal;HPM_P1;HPM_P2
2022/02/05 00:00:31;;;;;;;2.77;0.33;;;6.40;99.90;;;;;;6162109;23;20165;-91
2022/02/05 00:43:04;;;;;;;0.70;0.70;;;6.80;99.90;;;;;;6185458;23;20185;-91
2022/02/05 00:45:34;;;;;;;0.50;0.50;;;6.80;99.90;;;;;;6135695;23;20549;-91
2022/02/05 00:48:01;;;;;;;22.47;2.20;;;6.80;99.90;;;;;;6160541;23;20921;-91
2022/02/05 00:50:29;;;;;;;0.57;0.57;;;6.80;99.90;;;;;;6135879;23;20194;-90
2022/02/05 00:53:11;;;;;;;0.83;0.57;;;6.90;99.90;;;;;;6160731;23;20220;-90
2022/02/05 00:55:40;;;;;;;6.43;0.53;;;6.90;99.90;;;;;;6162377;23;20209;-91
2022/02/05 00:58:07;;;;;;;2.30;1.03;;;6.90;99.90;;;;;;6160608;23;20176;-89
2022/02/05 01:00:34;;;;;;;6.13;0.70;;;6.80;99.90;;;;;;6185109;23;20158;-90
2022/02/05 01:03:01;;;;;;;7.60;1.70;;;6.80;99.90;;;;;;6183740;23;20233;-91
2022/02/05 01:05:27;;;;;;;2.03;1.13;;;6.70;99.90;;;;;;6184059;23;20202;-91
2022/02/05 01:07:57;;;;;;;1.60;0.83;;;6.60;99.90;;;;;;6184341;23;20578;-90
2022/02/05 01:10:24;;;;;;;1.60;0.50;;;6.60;99.90;;;;;;6159764;23;20196;-91
2022/02/05 01:12:55;;;;;;;0.73;0.73;;;6.60;99.90;;;;;;6159139;23;20170;-90
2022/02/05 01:15:25;;;;;;;0.87;0.83;;;6.60;99.90;;;;;;6160802;23;20207;-90
2022/02/05 01:17:58;;;;;;;0.30;0.30;;;6.60;99.90;;;;;;6160511;23;20243;-90
2022/02/05 01:23:12;;;;;;;5.83;1.53;;;6.60;99.90;;;;;;6210446;23;20202;-91
2022/02/05 01:25:44;;;;;;;3.70;1.53;;;6.60;99.90;;;;;;6160454;23;20197;-90
2022/02/05 01:28:18;;;;;;;1.03;0.93;;;6.60;99.90;;;;;;6160849;23;20287;-90
2022/02/05 01:30:48;;;;;;;6.90;2.30;;;6.70;99.90;;;;;;6138289;23;20213;-90
2022/02/05 01:35:59;;;;;;;0.70;0.70;;;6.60;99.90;;;;;;6159726;23;20206;-90
2022/02/05 01:52:10;;;;;;;4.33;1.43;;;6.40;99.90;;;;;;6184389;23;20162;-90
2022/02/05 01:54:50;;;;;;;2.60;1.07;;;6.40;99.90;;;;;;6140638;23;20150;-90
2022/02/05 01:57:23;;;;;;;9.40;1.67;;;6.50;99.90;;;;;;6183826;23;20213;-89
2022/02/05 02:05:05;;;;;;;0.30;0.30;;;6.50;99.90;;;;;;6187841;23;20634;-89
2022/02/05 02:11:06;;;;;;;1.43;1.43;;;6.40;99.90;;;;;;6149247;23;20190;-90
2022/02/05 02:13:57;;;;;;;0.20;0.20;;;6.40;99.90;;;;;;6210055;23;20193;-93
2022/02/05 02:21:32;;;;;;;0.40;0.40;;;6.40;99.90;;;;;;6158583;23;20193;-91
2022/02/05 02:24:19;;;;;;;0.60;0.60;;;6.30;99.90;;;;;;6162443;23;20202;-91
2022/02/05 02:29:56;;;;;;;1.00;1.00;;;6.40;99.90;;;;;;6145476;23;20276;-90
2022/02/05 02:32:22;;;;;;;12.10;0.40;;;6.30;99.90;;;;;;6140917;23;20201;-90
2022/02/05 02:34:52;;;;;;;0.60;0.40;;;6.40;99.90;;;;;;6133678;23;20198;-90
2022/02/05 02:37:25;;;;;;;1.70;0.80;;;6.50;99.90;;;;;;6159885;23;20229;-90
2022/02/05 02:40:09;;;;;;;4.30;1.00;;;6.50;99.90;;;;;;6160315;23;20146;-90
2022/02/05 02:42:41;;;;;;;6.80;1.27;;;6.50;99.90;;;;;;6142268;23;20612;-89
2022/02/05 02:45:07;;;;;;;0.13;0.13;;;6.50;99.90;;;;;;6136644;23;20255;-90
2022/02/05 02:47:33;;;;;;;0.20;0.20;;;6.50;99.90;;;;;;6158182;23;20418;-90
2022/02/05 02:50:05;;;;;;;0.83;0.83;;;6.40;99.90;;;;;;6158309;23;20290;-89
2022/02/05 02:58:24;;;;;;;1.70;0.40;;;6.30;99.90;;;;;;6072073;23;20215;-90
2022/02/05 03:00:55;;;;;;;0.63;0.63;;;6.20;99.90;;;;;;6020205;23;20497;-90
2022/02/05 03:03:21;;;;;;;0.93;0.73;;;6.20;99.90;;;;;;6083855;23;20202;-90
2022/02/05 03:05:47;;;;;;;5.50;1.03;;;6.10;99.90;;;;;;6184603;23;20386;-90
2022/02/05 03:08:13;;;;;;;1.60;0.80;;;6.10;99.90;;;;;;6185186;23;20198;-90
2022/02/05 03:10:39;;;;;;;1.17;0.47;;;6.10;99.90;;;;;;6184453;23;20194;-90
2022/02/05 03:13:05;;;;;;;1.90;0.50;;;6.10;99.90;;;;;;6185200;23;20166;-91
2022/02/05 03:15:39;;;;;;;0.93;0.77;;;6.10;99.90;;;;;;6161052;23;20161;-91
2022/02/05 03:18:11;;;;;;;0.37;0.37;;;6.10;99.90;;;;;;6184761;23;20194;-90
2022/02/05 03:20:36;;;;;;;0.30;0.30;;;6.00;99.90;;;;;;6184897;23;20198;-90
2022/02/05 03:23:03;;;;;;;0.20;0.20;;;6.00;99.90;;;;;;6135449;23;20217;-90
2022/02/05 03:25:30;;;;;;;2.80;1.60;;;6.00;99.90;;;;;;6184850;23;20217;-91
2022/02/05 03:27:57;;;;;;;0.30;0.30;;;6.00;99.90;;;;;;6184973;23;20174;-90
2022/02/05 03:30:23;;;;;;;1.83;1.73;;;6.00;99.90;;;;;;6160512;23;20169;-90
2022/02/05 03:32:49;;;;;;;0.30;0.30;;;6.00;99.90;;;;;;6184951;23;20649;-90
2022/02/05 03:35:15;;;;;;;14.43;0.70;;;6.00;99.90;;;;;;6184379;23;20205;-91
2022/02/05 03:37:40;;;;;;;1.70;1.30;;;6.00;99.90;;;;;;6135483;23;20194;-90
2022/02/05 03:40:07;;;;;;;0.47;0.47;;;6.00;99.90;;;;;;6160428;23;20212;-91
2022/02/05 03:42:34;;;;;;;0.77;0.67;;;6.00;99.90;;;;;;6136002;23;20259;-91
2022/02/05 03:45:00;;;;;;;5.27;0.80;;;6.00;99.90;;;;;;6184748;23;20244;-90
2022/02/05 03:58:09;;;;;;;0.23;0.23;;;5.90;99.90;;;;;;6267068;22;1985770;-91
2022/02/05 04:00:34;;;;;;;2.13;0.43;;;5.80;99.90;;;;;;6198518;23;20230;-91
2022/02/05 04:03:02;;;;;;;0.43;0.43;;;5.80;99.90;;;;;;6172344;23;20203;-91
2022/02/05 04:05:28;;;;;;;1.07;0.63;;;5.80;99.90;;;;;;6173013;23;20201;-92
2022/02/05 04:07:54;;;;;;;5.47;0.47;;;5.80;99.90;;;;;;6172076;23;20640;-90
2022/02/05 04:10:27;;;;;;;0.40;0.40;;;5.80;99.90;;;;;;6197405;23;20215;-90
2022/02/05 04:18:22;;;;;;;0.40;0.40;;;5.80;99.90;;;;;;6226860;23;20263;-90
2022/02/05 04:20:49;;;;;;;8.50;0.87;;;5.80;99.90;;;;;;6196849;23;20200;-91
2022/02/05 04:23:15;;;;;;;0.10;0.10;;;5.80;99.90;;;;;;6172173;23;20239;-91
2022/02/05 04:25:41;;;;;;;17.00;0.63;;;5.70;99.90;;;;;;6197136;23;20216;-90
2022/02/05 04:28:07;;;;;;;1.27;0.57;;;5.70;99.90;;;;;;6222298;23;20153;-91
2022/02/05 04:30:33;;;;;;;3.60;2.97;;;5.70;99.90;;;;;;6197244;23;20165;-91
2022/02/05 04:33:00;;;;;;;0.77;0.77;;;5.70;99.90;;;;;;6196703;23;20276;-91
2022/02/05 04:35:26;;;;;;;0.30;0.30;;;5.70;99.90;;;;;;6196876;23;20193;-92
2022/02/05 04:37:54;;;;;;;0.83;0.43;;;5.70;99.90;;;;;;6196886;23;20709;-91
2022/02/05 04:40:46;;;;;;;0.70;0.70;;;5.70;99.90;;;;;;6173104;23;20272;-91
2022/02/05 04:43:34;;;;;;;0.40;0.40;;;5.70;99.90;;;;;;6182505;23;20208;-89
2022/02/05 04:46:33;;;;;;;1.17;1.17;;;5.70;99.90;;;;;;6204740;23;20591;-90
2022/02/05 05:12:16;;;;;;;0.70;0.70;;;5.70;99.90;;;;;;6239942;23;20196;-90
2022/02/05 05:19:56;;;;;;;1.07;1.07;;;5.60;99.90;;;;;;6241136;23;20201;-92
2022/02/05 05:22:21;;;;;;;0.93;0.93;;;5.60;99.90;;;;;;6215818;23;20276;-92
2022/02/05 05:24:47;;;;;;;4.33;2.03;;;5.60;99.90;;;;;;6191324;23;20154;-93
2022/02/05 05:27:13;;;;;;;1.07;0.67;;;5.60;99.90;;;;;;6191299;23;20284;-94
2022/02/05 05:29:39;;;;;;;0.93;0.93;;;5.60;99.90;;;;;;6215776;23;20543;-93
2022/02/05 05:32:05;;;;;;;0.20;0.20;;;5.60;99.90;;;;;;6215971;23;20266;-91
2022/02/05 05:34:31;;;;;;;2.70;0.57;;;5.70;99.90;;;;;;6241004;23;20189;-94
2022/02/05 05:36:58;;;;;;;7.43;0.47;;;5.80;99.90;;;;;;6190938;22;20573;-92
2022/02/05 05:39:23;;;;;;;9.57;0.77;;;5.80;99.90;;;;;;6191337;23;20165;-92
2022/02/05 05:41:49;;;;;;;2.00;0.73;;;5.80;99.90;;;;;;6214503;23;20939;-91
2022/02/05 05:46:44;;;;;;;0.70;0.70;;;5.80;99.90;;;;;;6214789;23;20292;-91
2022/02/05 05:49:22;;;;;;;0.90;0.47;;;5.70;99.90;;;;;;6239923;22;20231;-92
2022/02/05 05:51:48;;;;;;;0.20;0.20;;;5.70;99.90;;;;;;6195138;23;20203;-91
2022/02/05 05:54:15;;;;;;;1.33;1.23;;;5.70;99.90;;;;;;6214256;23;20205;-90
2022/02/05 05:56:42;;;;;;;1.00;1.00;;;5.70;99.90;;;;;;6214595;23;20231;-90
2022/02/05 05:59:08;;;;;;;1.07;0.73;;;5.70;99.90;;;;;;6239581;23;20272;-90
2022/02/05 06:01:36;;;;;;;0.30;0.30;;;5.60;99.90;;;;;;6189854;23;20228;-90
2022/02/05 06:04:03;;;;;;;0.97;0.40;;;5.60;99.90;;;;;;6239695;22;20587;-90
2022/02/05 06:06:28;;;;;;;0.30;0.30;;;5.50;99.90;;;;;;6215043;23;20211;-90
2022/02/05 06:08:54;;;;;;;0.40;0.40;;;5.60;99.90;;;;;;6213959;23;20280;-90
2022/02/05 06:11:23;;;;;;;0.67;0.67;;;5.60;99.90;;;;;;6213769;23;20193;-90
2022/02/05 06:13:50;;;;;;;0.23;0.23;;;5.60;99.90;;;;;;6188723;23;20201;-90
2022/02/05 06:16:18;;;;;;;4.63;0.50;;;5.60;99.90;;;;;;6189476;23;20193;-90
2022/02/05 06:18:44;;;;;;;2.97;0.70;;;5.60;99.90;;;;;;6214964;23;20645;-90
2022/02/05 06:21:10;;;;;;;0.50;0.50;;;5.60;99.90;;;;;;6189352;23;20246;-90
2022/02/05 06:23:36;;;;;;;1.07;1.00;;;5.50;99.90;;;;;;6189543;23;20193;-90
2022/02/05 06:26:05;;;;;;;8.83;1.73;;;5.60;99.90;;;;;;6213932;23;20333;-90
2022/02/05 06:28:31;;;;;;;12.07;1.57;;;5.60;99.90;;;;;;6214154;23;20197;-90
2022/02/05 06:30:57;;;;;;;0.40;0.40;;;5.60;99.90;;;;;;6175627;22;20153;-91
2022/02/05 06:33:22;;;;;;;0.20;0.20;;;5.60;99.90;;;;;;6189756;23;20161;-91
2022/02/05 06:35:48;;;;;;;0.30;0.30;;;5.50;99.90;;;;;;6214263;23;20197;-90
2022/02/05 06:38:14;;;;;;;0.30;0.30;;;5.50;99.90;;;;;;6214132;23;20197;-90
2022/02/05 06:40:39;;;;;;;2.97;1.57;;;5.50;99.90;;;;;;6189067;23;20197;-90
2022/02/05 06:43:05;;;;;;;0.83;0.83;;;5.50;99.90;;;;;;6189220;22;20166;-90
2022/02/05 06:45:31;;;;;;;0.60;0.50;;;5.40;99.90;;;;;;6189380;23;20199;-90
2022/02/05 06:47:57;;;;;;;6.17;0.50;;;5.40;99.90;;;;;;6188322;23;20193;-91
2022/02/05 06:50:23;;;;;;;0.70;0.70;;;5.40;99.90;;;;;;6214121;23;20249;-91
2022/02/05 06:52:49;;;;;;;4.17;1.43;;;5.40;99.90;;;;;;6189461;23;20197;-90
2022/02/05 06:55:14;;;;;;;1.37;1.37;;;5.40;99.90;;;;;;6214886;23;20193;-92
2022/02/05 06:57:40;;;;;;;5.20;1.37;;;5.50;99.90;;;;;;6189906;23;20168;-90
2022/02/05 07:00:10;;;;;;;1.47;0.70;;;5.40;99.90;;;;;;6188563;23;20231;-91
2022/02/05 07:02:40;;;;;;;0.30;0.30;;;5.40;99.90;;;;;;6240544;23;20248;-92
2022/02/05 07:05:07;;;;;;;0.60;0.60;;;5.50;99.90;;;;;;6215386;23;20204;-91
2022/02/05 07:07:33;;;;;;;1.47;1.33;;;5.50;99.90;;;;;;6188418;23;20212;-90
2022/02/05 07:09:58;;;;;;;0.60;0.60;;;5.40;99.90;;;;;;6188809;22;20162;-91
2022/02/05 07:12:24;;;;;;;0.30;0.30;;;5.40;99.90;;;;;;6190125;23;20575;-92
2022/02/05 07:15:03;;;;;;;1.53;1.53;;;5.40;99.90;;;;;;6214122;23;20201;-90
2022/02/05 07:20:47;;;;;;;5.67;0.47;;;5.40;99.90;;;;;;6200588;23;20200;-89
2022/02/05 07:31:22;;;;;;;3.13;0.83;;;5.60;99.90;;;;;;6238530;22;20272;-89
2022/02/05 07:33:48;;;;;;;3.33;0.70;;;5.80;99.90;;;;;;6214083;23;20168;-89
2022/02/05 07:36:16;;;;;;;1.70;0.50;;;5.90;99.90;;;;;;6188477;23;20208;-91
2022/02/05 07:38:43;;;;;;;5.40;0.90;;;6.20;99.90;;;;;;6238893;23;20228;-91
2022/02/05 07:41:09;;;;;;;1.30;0.90;;;6.40;99.90;;;;;;6214313;23;20739;-90
2022/02/05 07:43:35;;;;;;;2.90;0.53;;;6.70;99.90;;;;;;6214594;23;20528;-90
2022/02/05 07:46:03;;;;;;;1.80;0.70;;;6.80;99.90;;;;;;6213543;22;20215;-90
2022/02/05 07:48:30;;;;;;;4.57;1.23;;;6.70;99.90;;;;;;6215472;23;20210;-90
2022/02/05 07:50:55;;;;;;;1.13;1.07;;;6.60;99.90;;;;;;6214081;23;20630;-89
2022/02/05 07:53:21;;;;;;;4.17;0.63;;;6.40;99.90;;;;;;6188541;23;20251;-90
2022/02/05 07:55:47;;;;;;;0.70;0.70;;;6.40;99.90;;;;;;6188950;23;20209;-89
2022/02/05 07:58:13;;;;;;;0.70;0.70;;;6.30;99.90;;;;;;6188443;22;20588;-92
2022/02/05 08:00:39;;;;;;;0.43;0.43;;;6.30;99.90;;;;;;6215704;23;20157;-93
2022/02/05 08:03:04;;;;;;;1.77;0.83;;;6.30;99.90;;;;;;6188308;23;20231;-93
2022/02/05 08:05:30;;;;;;;0.70;0.70;;;6.50;99.90;;;;;;6188445;23;20205;-93
2022/02/05 08:07:58;;;;;;;1.30;0.87;;;6.50;99.90;;;;;;6188342;23;20526;-89
2022/02/05 08:10:29;;;;;;;1.37;1.17;;;6.80;99.90;;;;;;6189722;23;20530;-94
2022/02/05 08:12:57;;;;;;;4.83;1.27;;;7.20;99.90;;;;;;6191169;22;20619;-93
2022/02/05 08:15:26;;;;;;;1.17;1.07;;;7.20;99.90;;;;;;6215103;23;20150;-91
2022/02/05 08:17:52;;;;;;;2.00;0.30;;;7.80;99.90;;;;;;6238839;23;20757;-91
2022/02/05 08:20:18;;;;;;;2.27;1.03;;;8.20;99.90;;;;;;6188483;23;20272;-93
2022/02/05 08:22:43;;;;;;;0.67;0.67;;;9.10;99.90;;;;;;6188853;23;20213;-93
2022/02/05 08:25:09;;;;;;;2.87;0.50;;;9.20;99.90;;;;;;6214001;22;20165;-92
2022/02/05 08:27:36;;;;;;;1.17;1.17;;;8.70;99.90;;;;;;6190237;23;20635;-92
2022/02/05 08:30:07;;;;;;;0.60;0.50;;;8.30;99.90;;;;;;6190149;23;20716;-92
2022/02/05 08:32:33;;;;;;;0.40;0.40;;;8.80;99.90;;;;;;6190852;23;20327;-94
2022/02/05 08:35:00;;;;;;;2.10;0.97;;;9.70;99.90;;;;;;6191224;23;20238;-90
2022/02/05 08:37:30;;;;;;;0.60;0.60;;;9.40;99.90;;;;;;6217036;23;20259;-91
2022/02/05 08:39:56;;;;;;;0.60;0.27;;;9.30;99.90;;;;;;6217190;22;20173;-91
2022/02/05 08:42:22;;;;;;;7.23;1.73;;;8.80;99.90;;;;;;6218642;23;20231;-92
2022/02/05 08:44:48;;;;;;;4.53;1.93;;;8.70;99.90;;;;;;6190641;23;20201;-91
2022/02/05 08:47:16;;;;;;;0.80;0.80;;;8.40;99.90;;;;;;6216789;23;20232;-91
2022/02/05 08:49:43;;;;;;;14.93;1.60;;;8.10;99.90;;;;;;6215824;23;20201;-91
2022/02/05 08:52:10;;;;;;;0.87;0.80;;;8.10;99.90;;;;;;6216072;22;20493;-91
2022/02/05 08:54:38;;;;;;;1.93;1.70;;;8.00;99.90;;;;;;6191955;23;20530;-91
2022/02/05 08:57:05;;;;;;;1.77;1.07;;;7.90;99.90;;;;;;6240317;23;20197;-91
2022/02/05 08:59:43;;;;;;;5.23;1.53;;;7.90;99.90;;;;;;6214749;23;20231;-92
2022/02/05 09:02:18;;;;;;;1.50;0.47;;;8.10;99.90;;;;;;6193082;23;20288;-92
2022/02/05 09:05:10;;;;;;;1.90;0.70;;;8.00;99.90;;;;;;6216733;23;20584;-90
2022/02/05 09:07:35;;;;;;;3.23;1.13;;;8.10;99.90;;;;;;6200573;23;20682;-90
2022/02/05 09:10:12;;;;;;;9.10;1.07;;;7.90;99.90;;;;;;6214756;22;20276;-89
2022/02/05 09:15:07;;;;;;;7.90;1.97;;;7.70;99.90;;;;;;6240994;23;20193;-90
2022/02/05 09:17:33;;;;;;;0.50;0.50;;;7.70;99.90;;;;;;6241010;23;20201;-91
2022/02/05 09:19:59;;;;;;;0.40;0.40;;;7.50;99.90;;;;;;6240438;23;20646;-92
2022/02/05 09:22:27;;;;;;;8.73;1.60;;;7.50;99.90;;;;;;6215152;23;20351;-91
2022/02/05 09:24:55;;;;;;;1.10;1.00;;;7.50;99.90;;;;;;6216539;22;20219;-89
2022/02/05 09:27:21;;;;;;;2.87;0.53;;;7.50;99.90;;;;;;6241472;23;20614;-91
2022/02/05 09:30:00;;;;;;;3.40;0.77;;;7.50;99.90;;;;;;6215388;23;20228;-91
2022/02/05 09:32:27;;;;;;;3.83;1.90;;;7.50;99.90;;;;;;6195768;23;20204;-90
2022/02/05 09:34:53;;;;;;;0.20;0.20;;;7.50;99.90;;;;;;6215931;23;20200;-90
2022/02/05 09:37:22;;;;;;;0.97;0.53;;;7.60;99.90;;;;;;6190470;23;20272;-90
2022/02/05 09:39:49;;;;;;;5.03;1.07;;;7.60;99.90;;;;;;6240585;22;20149;-90
2022/02/05 09:42:16;;;;;;;0.60;0.50;;;7.60;99.90;;;;;;6190869;23;20236;-90
2022/02/05 09:44:41;;;;;;;0.80;0.80;;;7.60;99.90;;;;;;6215433;23;20204;-91
2022/02/05 09:47:08;;;;;;;5.90;1.60;;;7.50;99.90;;;;;;6240563;23;20205;-91
2022/02/05 09:49:34;;;;;;;0.50;0.50;;;7.70;99.90;;;;;;6215438;23;20255;-91
2022/02/05 09:52:08;;;;;;;3.43;1.00;;;7.70;99.90;;;;;;6215608;22;20272;-90
2022/02/05 09:54:36;;;;;;;2.00;1.13;;;7.70;99.90;;;;;;6218117;23;20149;-91
2022/02/05 09:57:02;;;;;;;1.90;0.77;;;7.60;99.90;;;;;;6240414;23;20647;-91
2022/02/05 09:59:28;;;;;;;1.13;1.13;;;7.60;99.90;;;;;;6189973;23;20229;-91
2022/02/05 10:02:17;;;;;;;3.90;0.70;;;7.50;99.90;;;;;;6215774;23;20533;-90
2022/02/05 10:05:11;;;;;;;0.93;0.83;;;7.60;99.90;;;;;;6240685;23;20212;-91
2022/02/05 10:08:00;;;;;;;1.17;1.03;;;7.70;99.90;;;;;;6240598;23;20279;-91
2022/02/05 10:10:38;;;;;;;2.07;1.07;;;7.70;99.90;;;;;;6240552;23;20228;-91
2022/02/05 10:13:15;;;;;;;4.30;1.33;;;7.80;99.90;;;;;;6240789;23;20197;-91
2022/02/05 10:15:42;;;;;;;0.23;0.23;;;7.80;99.90;;;;;;6240785;22;20168;-91
2022/02/05 10:18:25;;;;;;;1.23;1.00;;;7.70;99.90;;;;;;6240224;23;20150;-90
2022/02/05 10:20:52;;;;;;;0.90;0.90;;;7.80;99.90;;;;;;6239617;23;20246;-90
2022/02/05 10:23:21;;;;;;;0.43;0.43;;;7.80;99.90;;;;;;6189534;23;20197;-91
2022/02/05 10:25:52;;;;;;;9.63;1.13;;;7.70;99.90;;;;;;6190289;23;20201;-90
2022/02/05 10:28:18;;;;;;;1.13;1.13;;;7.70;99.90;;;;;;6197952;23;20189;-90
2022/02/05 10:30:51;;;;;;;2.37;1.40;;;7.70;99.90;;;;;;6214339;22;20168;-91
2022/02/05 10:33:27;;;;;;;0.60;0.60;;;7.80;99.90;;;;;;6240412;23;20466;-91
2022/02/05 10:36:28;;;;;;;1.10;1.10;;;7.80;99.90;;;;;;6201859;23;20335;-91
2022/02/05 10:39:14;;;;;;;0.60;0.57;;;7.80;99.90;;;;;;6240403;22;20280;-91
2022/02/05 10:44:32;;;;;;;2.17;1.47;;;7.80;99.90;;;;;;6217053;23;20303;-90
2022/02/05 10:46:59;;;;;;;12.20;1.83;;;7.80;99.90;;;;;;6215049;23;20209;-90
2022/02/05 10:49:49;;;;;;;3.23;0.77;;;7.90;99.90;;;;;;6213976;23;20503;-90
2022/02/05 10:52:35;;;;;;;2.77;2.27;;;7.90;99.90;;;;;;6238983;23;20247;-90
2022/02/05 10:57:40;;;;;;;3.03;1.73;;;8.10;99.90;;;;;;6239691;23;20465;-90
2022/02/05 11:05:41;;;;;;;3.17;1.80;;;8.10;99.90;;;;;;6218684;23;20247;-90
2022/02/05 11:08:09;;;;;;;0.90;0.90;;;8.10;99.90;;;;;;6193040;23;20247;-91
2022/02/05 11:16:47;;;;;;;2.87;1.37;;;8.10;99.90;;;;;;6241464;22;20245;-91
2022/02/05 11:19:12;;;;;;;6.27;1.83;;;8.10;99.90;;;;;;6241011;22;20181;-90
2022/02/05 11:21:38;;;;;;;1.67;1.40;;;8.20;99.90;;;;;;6190908;23;20165;-91
2022/02/05 11:24:06;;;;;;;2.80;1.43;;;8.30;99.90;;;;;;6189983;23;20216;-90
2022/02/05 11:26:33;;;;;;;11.77;1.53;;;8.30;99.90;;;;;;6214765;23;20284;-90
2022/02/05 11:29:03;;;;;;;1.50;1.07;;;8.30;99.90;;;;;;6189574;23;20193;-90
2022/02/05 11:31:42;;;;;;;1.70;1.47;;;8.30;99.90;;;;;;6215083;23;20288;-90
2022/02/05 11:34:26;;;;;;;1.13;0.87;;;8.30;99.90;;;;;;6240102;23;20200;-91
2022/02/05 11:36:57;;;;;;;2.03;0.83;;;8.30;99.90;;;;;;6239345;22;20154;-90
2022/02/05 11:39:23;;;;;;;4.10;1.53;;;8.30;99.90;;;;;;6241819;23;20467;-92
2022/02/05 11:41:50;;;;;;;1.53;1.43;;;8.50;99.90;;;;;;6189857;23;20436;-92
2022/02/05 11:44:41;;;;;;;9.00;1.83;;;8.70;99.90;;;;;;6191734;23;20525;-90
2022/02/05 11:47:07;;;;;;;0.37;0.37;;;8.90;99.90;;;;;;6240497;23;20205;-91
2022/02/05 11:49:53;;;;;;;1.33;0.53;;;8.90;99.90;;;;;;6239215;23;20747;-91
2022/02/05 11:52:37;;;;;;;9.00;1.27;;;9.20;99.90;;;;;;6219087;23;20208;-90
2022/02/05 11:55:27;;;;;;;0.40;0.40;;;9.40;99.90;;;;;;6243269;23;20212;-91
2022/02/05 11:58:03;;;;;;;4.80;0.93;;;9.00;99.90;;;;;;6241390;22;20146;-89
2022/02/05 12:00:49;;;;;;;1.83;1.13;;;9.10;99.90;;;;;;6192314;23;20583;-89
2022/02/05 12:03:37;;;;;;;0.60;0.60;;;9.20;99.90;;;;;;6193784;23;20173;-90
2022/02/05 12:06:06;;;;;;;2.80;1.60;;;9.10;99.90;;;;;;6216625;23;20205;-90
2022/02/05 12:08:42;;;;;;;1.10;0.80;;;8.90;99.90;;;;;;6217199;23;20281;-90
2022/02/05 12:11:30;;;;;;;15.57;1.30;;;9.00;99.90;;;;;;6188295;23;20193;-90
2022/02/05 12:14:14;;;;;;;6.80;1.27;;;8.80;99.90;;;;;;6187939;23;20272;-92
2022/02/05 12:17:09;;;;;;;1.10;0.43;;;8.60;99.90;;;;;;6199213;23;20255;-91
2022/02/05 12:19:59;;;;;;;0.93;0.83;;;8.60;99.90;;;;;;6216624;23;20283;-90
2022/02/05 12:25:58;;;;;;;1.03;1.03;;;8.80;99.90;;;;;;6243936;23;20208;-90
2022/02/05 12:28:36;;;;;;;18.47;2.20;;;8.90;99.90;;;;;;6216666;23;20193;-90
2022/02/05 12:31:25;;;;;;;3.93;0.97;;;8.90;99.90;;;;;;6193533;23;20212;-90
2022/02/05 12:34:07;;;;;;;3.60;0.73;;;9.00;99.90;;;;;;6218669;23;20164;-90
2022/02/05 12:36:42;;;;;;;0.63;0.63;;;9.00;99.90;;;;;;6219073;23;20451;-90
2022/02/05 12:39:12;;;;;;;0.93;0.90;;;9.20;99.90;;;;;;6220643;23;20177;-91
2022/02/05 12:42:02;;;;;;;3.20;1.27;;;9.00;99.90;;;;;;6219093;23;20666;-91
2022/02/05 12:44:30;;;;;;;0.90;0.63;;;8.90;99.90;;;;;;6194829;23;20654;-91
2022/02/05 12:47:12;;;;;;;0.70;0.50;;;8.80;99.90;;;;;;6201783;23;20211;-91
2022/02/05 12:49:49;;;;;;;0.70;0.70;;;8.80;99.90;;;;;;6217246;23;20201;-91
2022/02/05 12:52:21;;;;;;;4.57;1.23;;;8.90;99.90;;;;;;6186008;23;20199;-90
2022/02/05 12:54:54;;;;;;;3.23;1.43;;;9.10;99.90;;;;;;6163504;23;20258;-91
2022/02/05 12:57:20;;;;;;;1.60;1.50;;;9.30;99.90;;;;;;6190577;23;20149;-91
2022/02/05 12:59:48;;;;;;;2.37;1.43;;;9.40;99.90;;;;;;6165259;23;20238;-91
2022/02/05 13:02:16;;;;;;;2.60;1.73;;;9.50;99.90;;;;;;6183173;23;20189;-90
2022/02/05 13:04:46;;;;;;;2.47;0.43;;;9.50;99.90;;;;;;6179623;23;20653;-89
2022/02/05 13:07:21;;;;;;;2.60;1.00;;;9.50;99.90;;;;;;6217738;23;20673;-92
2022/02/05 13:09:59;;;;;;;4.40;1.13;;;9.40;99.90;;;;;;6197318;23;20149;-91
2022/02/05 13:12:41;;;;;;;3.07;0.60;;;9.40;99.90;;;;;;6222004;23;20173;-90
2022/02/05 13:15:29;;;;;;;4.00;0.30;;;9.20;99.90;;;;;;6222257;23;20177;-90
2022/02/05 13:34:13;;;;;;;4.50;2.43;;;8.60;99.90;;;;;;6199007;23;20195;-91
2022/02/05 13:36:46;;;;;;;3.93;1.07;;;8.60;99.90;;;;;;6167603;23;20165;-90
2022/02/05 13:39:41;;;;;;;3.10;0.70;;;8.60;99.90;;;;;;6217595;23;20146;-92
2022/02/05 13:42:17;;;;;;;3.27;1.33;;;8.60;99.90;;;;;;6164483;23;20177;-91
2022/02/05 13:44:58;;;;;;;1.10;1.00;;;8.70;99.90;;;;;;6189516;23;20220;-92
2022/02/05 13:47:33;;;;;;;1.83;0.80;;;8.70;99.90;;;;;;6218213;23;20223;-92
2022/02/05 13:50:27;;;;;;;3.30;0.70;;;8.80;99.90;;;;;;6216681;23;20196;-92
2022/02/05 13:53:02;;;;;;;0.50;0.50;;;8.80;99.90;;;;;;6217503;23;20197;-92
2022/02/05 13:55:30;;;;;;;0.77;0.77;;;8.80;99.90;;;;;;6215710;23;20656;-93
2022/02/05 13:58:03;;;;;;;4.60;1.13;;;8.70;99.90;;;;;;6215681;23;20161;-91
2022/02/05 14:00:44;;;;;;;2.97;1.07;;;8.70;99.90;;;;;;6215080;23;20522;-94
2022/02/05 14:03:12;;;;;;;0.40;0.40;;;8.70;99.90;;;;;;6210431;23;20612;-91
2022/02/05 14:06:07;;;;;;;5.00;1.03;;;8.80;99.90;;;;;;6160731;23;20578;-92
2022/02/05 14:08:53;;;;;;;0.23;0.23;;;8.70;99.90;;;;;;6209875;23;20197;-94
2022/02/05 14:11:26;;;;;;;0.70;0.60;;;8.70;99.90;;;;;;6210275;23;20655;-94
2022/02/05 14:14:12;;;;;;;0.70;0.50;;;8.70;99.90;;;;;;6209814;23;20285;-94
2022/02/05 14:16:41;;;;;;;7.60;1.47;;;8.70;99.90;;;;;;6210144;23;20198;-92
2022/02/05 14:19:08;;;;;;;1.20;1.07;;;8.60;99.90;;;;;;6209539;23;20208;-90
2022/02/05 14:21:40;;;;;;;7.70;1.00;;;8.50;99.90;;;;;;6185170;23;20162;-91
2022/02/05 14:24:17;;;;;;;8.17;1.37;;;8.60;99.90;;;;;;6184954;23;20644;-94
2022/02/05 14:26:54;;;;;;;2.83;1.17;;;8.50;99.90;;;;;;6209105;23;20712;-93
2022/02/05 14:29:20;;;;;;;5.27;1.87;;;8.50;99.90;;;;;;6164498;23;20217;-90
2022/02/05 14:31:54;;;;;;;5.07;1.70;;;8.40;99.90;;;;;;6183816;23;20240;-92
2022/02/05 14:34:59;;;;;;;8.73;0.90;;;8.30;99.90;;;;;;6185722;23;20186;-93
2022/02/05 14:42:37;;;;;;;0.50;0.43;;;8.40;99.90;;;;;;6212200;23;20710;-92
2022/02/05 14:45:03;;;;;;;4.70;1.07;;;8.30;99.90;;;;;;6161040;23;20710;-92
2022/02/05 14:47:29;;;;;;;2.47;0.83;;;8.20;99.90;;;;;;6159399;23;20698;-89
2022/02/05 14:49:55;;;;;;;3.50;0.83;;;8.20;99.90;;;;;;6184920;23;20208;-94
2022/02/05 14:52:21;;;;;;;7.43;0.80;;;8.20;99.90;;;;;;6159776;23;20194;-92
2022/02/05 14:54:48;;;;;;;1.23;0.87;;;8.20;99.90;;;;;;6184949;23;20162;-91
2022/02/05 14:57:14;;;;;;;8.13;1.57;;;8.10;99.90;;;;;;6160841;23;20158;-94
2022/02/05 14:59:42;;;;;;;5.60;1.03;;;8.10;99.90;;;;;;6209019;23;20221;-92
2022/02/05 15:02:09;;;;;;;0.40;0.33;;;8.10;99.90;;;;;;6184247;23;20239;-91
2022/02/05 15:04:39;;;;;;;3.10;0.97;;;8.10;99.90;;;;;;6160062;23;20563;-93
2022/02/05 15:07:06;;;;;;;1.03;0.47;;;8.00;99.90;;;;;;6209694;23;20198;-91
2022/02/05 15:09:32;;;;;;;1.50;0.40;;;8.00;99.90;;;;;;6184628;23;20158;-91
2022/02/05 15:11:58;;;;;;;3.73;1.00;;;8.00;99.90;;;;;;6209648;23;20544;-91
2022/02/05 15:14:24;;;;;;;0.63;0.63;;;8.00;99.90;;;;;;6214374;23;20205;-87
2022/02/05 15:16:49;;;;;;;4.93;0.77;;;8.00;99.90;;;;;;6159074;23;20208;-89
2022/02/05 15:19:15;;;;;;;2.70;1.03;;;8.00;99.90;;;;;;6208549;23;20194;-89
2022/02/05 15:21:41;;;;;;;7.87;1.53;;;8.00;99.90;;;;;;6183794;23;20162;-88
2022/02/05 15:24:10;;;;;;;4.73;0.67;;;8.00;99.90;;;;;;6185895;23;20221;-90
2022/02/05 15:26:37;;;;;;;4.80;2.17;;;8.00;99.90;;;;;;6183626;23;20304;-92
2022/02/05 15:29:06;;;;;;;1.47;1.10;;;7.90;99.90;;;;;;6183803;23;20203;-92
2022/02/05 15:31:33;;;;;;;1.10;1.10;;;7.90;99.90;;;;;;6208751;23;20193;-91
2022/02/05 15:34:01;;;;;;;3.40;1.80;;;7.90;99.90;;;;;;6184548;23;20490;-90
2022/02/05 15:44:18;;;;;;;0.83;0.80;;;7.90;99.90;;;;;;6208434;23;20200;-93
2022/02/05 15:46:44;;;;;;;23.47;1.07;;;7.90;99.90;;;;;;6183462;23;20288;-92
2022/02/05 15:49:10;;;;;;;4.33;1.17;;;7.90;99.90;;;;;;6183905;23;20643;-94
2022/02/05 15:51:36;;;;;;;7.57;1.97;;;7.90;99.90;;;;;;6184603;23;20223;-90
2022/02/05 15:54:04;;;;;;;1.00;1.00;;;7.90;99.90;;;;;;6183699;23;20658;-94
2022/02/05 15:56:46;;;;;;;1.10;1.00;;;7.80;99.90;;;;;;6181678;23;20202;-91
2022/02/05 15:59:21;;;;;;;3.50;1.17;;;7.80;99.90;;;;;;6213914;22;20193;-93
2022/02/05 16:01:47;;;;;;;1.10;0.93;;;7.80;99.90;;;;;;6161347;23;20205;-96
2022/02/05 16:04:13;;;;;;;5.23;1.33;;;7.80;99.90;;;;;;6189701;23;20192;-90
2022/02/05 16:06:40;;;;;;;1.10;0.53;;;7.80;99.90;;;;;;6165020;23;20858;-90
2022/02/05 16:09:05;;;;;;;1.37;1.27;;;7.80;99.90;;;;;;6163633;23;20250;-91
2022/02/05 16:11:32;;;;;;;1.23;0.70;;;7.70;99.90;;;;;;6163120;23;20193;-91
2022/02/05 16:13:58;;;;;;;4.40;1.83;;;7.60;99.90;;;;;;6187777;23;20250;-91
2022/02/05 16:16:24;;;;;;;2.20;1.87;;;7.70;99.90;;;;;;6163821;23;20189;-88
2022/02/05 16:18:50;;;;;;;9.73;1.67;;;7.60;99.90;;;;;;6163442;23;20900;-89
2022/02/05 16:21:15;;;;;;;0.87;0.87;;;7.60;99.90;;;;;;6188820;23;20185;-90
2022/02/05 16:23:41;;;;;;;11.77;2.23;;;7.60;99.90;;;;;;6158461;23;20196;-90
2022/02/05 16:26:10;;;;;;;0.80;0.80;;;7.50;99.90;;;;;;6182292;23;20571;-89
2022/02/05 16:28:37;;;;;;;0.50;0.50;;;7.50;99.90;;;;;;6182173;23;20202;-93